ΕΜΥ, Εθνική Μετεωρολογική Υπηρεσία - Δελτία Καιρού, Προγνώσεις

ΑΕΡΟΝΑΥΤΙΛΙΑ

GREEK AIRPORTS CODES

TAF LGTT 180700Z 1809/1818 25010G20KT 9999 FEW025 BECMG 1810/1812 SCT020 BKN050=

EUROPEAN AIRPORTS CODES

LFPO 181130Z 02008KT 340V060 9999 BKN035 11/04 Q1022 NOSIG=